AAL751 KLGA-KMVY
Flight info
| Callsign | AAL751 |
|---|---|
| Flight time | 0h 33m |
| Altitude | 17000 |
| Route | BAYYS SEALL V188 GON V374 MVY |
| Aircraft | B738/M-SDE2E3FGHIRWXY/LB1 |
Departure
| Time | 2026-04-25 18:36 |
|---|---|
| Airport | LaGuardia Airport (KLGA) |
Arrival
| Time | 2026-04-25 19:09 |
|---|---|
| Airport | Martha's Vineyard Airport (KMVY) |
| Time | Latitude | Longitude | Altitude | Speed | Heading |
|---|---|---|---|---|---|
| 2026-04-25 18:16 | 40.77617 | -73.87097 | 16 ft | 0 kts | 301° |
| 2026-04-25 18:27 | 40.77612 | -73.87086 | 15 ft | 3 kts | 304° |
| 2026-04-25 18:27 | 40.77600 | -73.87065 | 15 ft | 3 kts | 314° |
| 2026-04-25 18:27 | 40.77585 | -73.87047 | 15 ft | 3 kts | 329° |
| 2026-04-25 18:27 | 40.77568 | -73.87037 | 17 ft | 3 kts | 359° |
| 2026-04-25 18:28 | 40.77555 | -73.87039 | 14 ft | 1 kts | 32° |
| 2026-04-25 18:28 | 40.77554 | -73.87040 | 14 ft | 1 kts | 32° |
| 2026-04-25 18:30 | 40.77554 | -73.87039 | 14 ft | 0 kts | 32° |
| 2026-04-25 18:31 | 40.77598 | -73.87002 | 12 ft | 9 kts | 32° |
| 2026-04-25 18:31 | 40.77653 | -73.87017 | 14 ft | 9 kts | 316° |
| 2026-04-25 18:32 | 40.77693 | -73.87097 | 17 ft | 14 kts | 300° |
| 2026-04-25 18:32 | 40.77751 | -73.87226 | 17 ft | 17 kts | 300° |
| 2026-04-25 18:32 | 40.77771 | -73.87358 | 17 ft | 9 kts | 268° |
| 2026-04-25 18:32 | 40.77816 | -73.87412 | 18 ft | 10 kts | 328° |
| 2026-04-25 18:33 | 40.77859 | -73.87471 | 17 ft | 0 kts | 305° |
| 2026-04-25 18:33 | 40.77867 | -73.87487 | 19 ft | 11 kts | 303° |
| 2026-04-25 18:34 | 40.77928 | -73.87611 | 14 ft | 23 kts | 303° |
| 2026-04-25 18:34 | 40.78014 | -73.87789 | 15 ft | 23 kts | 307° |
| 2026-04-25 18:34 | 40.78126 | -73.87855 | 17 ft | 10 kts | 347° |
| 2026-04-25 18:34 | 40.78194 | -73.87857 | 13 ft | 10 kts | 25° |
| 2026-04-25 18:35 | 40.78201 | -73.87791 | 11 ft | 0 kts | 119° |
| 2026-04-25 18:35 | 40.78174 | -73.87734 | 9 ft | 29 kts | 120° |
| 2026-04-25 18:35 | 40.77903 | -73.87170 | 15 ft | 111 kts | 121° |
| 2026-04-25 18:35 | 40.77366 | -73.86095 | 176 ft | 165 kts | 124° |
| 2026-04-25 18:36 | 40.76641 | -73.84851 | 1066 ft | 171 kts | 128° |
| 2026-04-25 18:36 | 40.76027 | -73.83622 | 1827 ft | 154 kts | 122° |
| 2026-04-25 18:36 | 40.75529 | -73.82386 | 2548 ft | 159 kts | 104° |
| 2026-04-25 18:36 | 40.75697 | -73.80876 | 3097 ft | 178 kts | 75° |
| 2026-04-25 18:37 | 40.76284 | -73.79396 | 3794 ft | 195 kts | 49° |
| 2026-04-25 18:37 | 40.77397 | -73.78299 | 4538 ft | 204 kts | 38° |
| 2026-04-25 18:37 | 40.78562 | -73.77146 | 5163 ft | 217 kts | 37° |
| 2026-04-25 18:37 | 40.79829 | -73.75885 | 5684 ft | 240 kts | 35° |
| 2026-04-25 18:38 | 40.81340 | -73.74709 | 6241 ft | 261 kts | 24° |
| 2026-04-25 18:38 | 40.83013 | -73.73629 | 6794 ft | 276 kts | 24° |
| 2026-04-25 18:38 | 40.84785 | -73.72480 | 7324 ft | 291 kts | 24° |
| 2026-04-25 18:38 | 40.86639 | -73.71254 | 7895 ft | 303 kts | 24° |
| 2026-04-25 18:39 | 40.88526 | -73.69953 | 8693 ft | 309 kts | 30° |
| 2026-04-25 18:39 | 40.90072 | -73.67947 | 9490 ft | 316 kts | 51° |
| 2026-04-25 18:39 | 40.91376 | -73.65593 | 10289 ft | 319 kts | 52° |
| 2026-04-25 18:39 | 40.92677 | -73.63210 | 11026 ft | 320 kts | 52° |
| 2026-04-25 18:40 | 40.93980 | -73.60817 | 11759 ft | 320 kts | 51° |
| 2026-04-25 18:40 | 40.95281 | -73.58438 | 12528 ft | 318 kts | 51° |
| 2026-04-25 18:40 | 40.96564 | -73.56095 | 13309 ft | 314 kts | 50° |
| 2026-04-25 18:40 | 40.97855 | -73.53748 | 14092 ft | 314 kts | 49° |
| 2026-04-25 18:41 | 40.99140 | -73.51416 | 14816 ft | 312 kts | 49° |
| 2026-04-25 18:41 | 40.99982 | -73.49888 | 15308 ft | 309 kts | 49° |
| 2026-04-25 18:41 | 41.01242 | -73.47603 | 16083 ft | 306 kts | 49° |
| 2026-04-25 18:41 | 41.02930 | -73.44544 | 16883 ft | 313 kts | 49° |
| 2026-04-25 18:42 | 41.03802 | -73.42972 | 17006 ft | 328 kts | 49° |
| 2026-04-25 18:42 | 41.04721 | -73.41316 | 17032 ft | 346 kts | 49° |
| 2026-04-25 18:42 | 41.06723 | -73.37702 | 17053 ft | 381 kts | 50° |
| 2026-04-25 18:42 | 41.08338 | -73.34774 | 17019 ft | 404 kts | 50° |
| 2026-04-25 18:43 | 41.10030 | -73.31693 | 17032 ft | 422 kts | 50° |
| 2026-04-25 18:43 | 41.11788 | -73.28485 | 17047 ft | 439 kts | 50° |
| 2026-04-25 18:43 | 41.13613 | -73.25152 | 17043 ft | 454 kts | 51° |
| 2026-04-25 18:43 | 41.15492 | -73.21716 | 17041 ft | 465 kts | 51° |
| 2026-04-25 18:44 | 41.17382 | -73.18251 | 17026 ft | 460 kts | 51° |
| 2026-04-25 18:44 | 41.19243 | -73.14834 | 17016 ft | 452 kts | 51° |
| 2026-04-25 18:44 | 41.21052 | -73.11509 | 17003 ft | 442 kts | 51° |
| 2026-04-25 18:44 | 41.22871 | -73.08178 | 17018 ft | 448 kts | 51° |
| 2026-04-25 18:45 | 41.24714 | -73.04801 | 17023 ft | 453 kts | 51° |
| 2026-04-25 18:45 | 41.26536 | -73.01456 | 17011 ft | 452 kts | 51° |
| 2026-04-25 18:45 | 41.28409 | -72.98044 | 17009 ft | 450 kts | 49° |
| 2026-04-25 18:45 | 41.30483 | -72.94967 | 17018 ft | 444 kts | 38° |
| 2026-04-25 18:46 | 41.32817 | -72.92300 | 17027 ft | 442 kts | 36° |
| 2026-04-25 18:46 | 41.35154 | -72.89639 | 17034 ft | 442 kts | 36° |
| 2026-04-25 18:46 | 41.37288 | -72.86657 | 16994 ft | 452 kts | 53° |
| 2026-04-25 18:46 | 41.38564 | -72.82879 | 17035 ft | 459 kts | 72° |
| 2026-04-25 18:47 | 41.38959 | -72.78597 | 17008 ft | 465 kts | 91° |
| 2026-04-25 18:47 | 41.38647 | -72.74368 | 17023 ft | 465 kts | 96° |
| 2026-04-25 18:47 | 41.38253 | -72.70091 | 17002 ft | 466 kts | 96° |
| 2026-04-25 18:47 | 41.37869 | -72.65804 | 16997 ft | 467 kts | 96° |
| 2026-04-25 18:48 | 41.37512 | -72.61508 | 16992 ft | 467 kts | 95° |
| 2026-04-25 18:48 | 41.37175 | -72.57212 | 16998 ft | 467 kts | 95° |
| 2026-04-25 18:48 | 41.36842 | -72.52911 | 16994 ft | 467 kts | 95° |
| 2026-04-25 18:48 | 41.36510 | -72.48605 | 16999 ft | 467 kts | 95° |
| 2026-04-25 18:49 | 41.36176 | -72.44302 | 16999 ft | 468 kts | 95° |
| 2026-04-25 18:49 | 41.35841 | -72.39999 | 17006 ft | 468 kts | 95° |
| 2026-04-25 18:49 | 41.35503 | -72.35688 | 16997 ft | 468 kts | 95° |
| 2026-04-25 18:49 | 41.35164 | -72.31382 | 17009 ft | 468 kts | 95° |
| 2026-04-25 18:50 | 41.34821 | -72.27077 | 17005 ft | 468 kts | 95° |
| 2026-04-25 18:50 | 41.34471 | -72.22772 | 17017 ft | 467 kts | 95° |
| 2026-04-25 18:50 | 41.34114 | -72.18485 | 17023 ft | 467 kts | 95° |
| 2026-04-25 18:50 | 41.33754 | -72.14186 | 17032 ft | 466 kts | 95° |
| 2026-04-25 18:51 | 41.33394 | -72.09903 | 17032 ft | 466 kts | 95° |
| 2026-04-25 18:51 | 41.33158 | -72.07069 | 17023 ft | 465 kts | 94° |
| 2026-04-25 18:51 | 41.33043 | -72.01337 | 17028 ft | 462 kts | 83° |
| 2026-04-25 18:51 | 41.33330 | -71.97082 | 17032 ft | 461 kts | 82° |
| 2026-04-25 18:52 | 41.33620 | -71.92819 | 17026 ft | 462 kts | 83° |
| 2026-04-25 18:52 | 41.33863 | -71.88552 | 17036 ft | 462 kts | 83° |
| 2026-04-25 18:52 | 41.34078 | -71.84277 | 17025 ft | 463 kts | 84° |
| 2026-04-25 18:52 | 41.34284 | -71.80025 | 16889 ft | 459 kts | 84° |
| 2026-04-25 18:53 | 41.34488 | -71.75811 | 16374 ft | 452 kts | 84° |
| 2026-04-25 18:53 | 41.34691 | -71.71660 | 15812 ft | 447 kts | 83° |
| 2026-04-25 18:53 | 41.34891 | -71.67556 | 15235 ft | 442 kts | 83° |
| 2026-04-25 18:53 | 41.35090 | -71.63500 | 14661 ft | 437 kts | 83° |
| 2026-04-25 18:54 | 41.35475 | -71.55535 | 13516 ft | 427 kts | 83° |
| 2026-04-25 18:54 | 41.35661 | -71.51668 | 12887 ft | 423 kts | 83° |
| 2026-04-25 18:54 | 41.35848 | -71.47743 | 12357 ft | 416 kts | 84° |
| 2026-04-25 18:55 | 41.36026 | -71.43960 | 11751 ft | 413 kts | 84° |
| 2026-04-25 18:55 | 41.36205 | -71.40167 | 11306 ft | 406 kts | 84° |
| 2026-04-25 18:55 | 41.36378 | -71.36501 | 11241 ft | 389 kts | 84° |
| 2026-04-25 18:55 | 41.36547 | -71.32962 | 11067 ft | 377 kts | 84° |
| 2026-04-25 18:56 | 41.36711 | -71.29533 | 10906 ft | 366 kts | 84° |
| 2026-04-25 18:56 | 41.36869 | -71.26209 | 10751 ft | 355 kts | 84° |
| 2026-04-25 18:56 | 41.37022 | -71.22978 | 10593 ft | 345 kts | 84° |
| 2026-04-25 18:56 | 41.37168 | -71.19835 | 10467 ft | 335 kts | 84° |
| 2026-04-25 18:57 | 41.37364 | -71.16787 | 10320 ft | 324 kts | 76° |
| 2026-04-25 18:57 | 41.37984 | -71.13970 | 10203 ft | 312 kts | 67° |
| 2026-04-25 18:57 | 41.38707 | -71.11292 | 10076 ft | 304 kts | 66° |
| 2026-04-25 18:57 | 41.39194 | -71.09520 | 9988 ft | 298 kts | 66° |
| 2026-04-25 18:58 | 41.40119 | -71.06139 | 9612 ft | 295 kts | 67° |
| 2026-04-25 18:58 | 41.41494 | -71.01022 | 9026 ft | 292 kts | 68° |
| 2026-04-25 18:58 | 41.42169 | -70.98481 | 8734 ft | 290 kts | 68° |
| 2026-04-25 18:59 | 41.43530 | -70.93315 | 7635 ft | 305 kts | 69° |
| 2026-04-25 18:59 | 41.44962 | -70.87846 | 6424 ft | 316 kts | 69° |
| 2026-04-25 19:00 | 41.46385 | -70.82375 | 5124 ft | 309 kts | 69° |
| 2026-04-25 19:00 | 41.47086 | -70.79674 | 4470 ft | 306 kts | 69° |
| 2026-04-25 19:01 | 41.48468 | -70.74371 | 3165 ft | 299 kts | 69° |
| 2026-04-25 19:01 | 41.49379 | -70.71906 | 2498 ft | 296 kts | 55° |
| 2026-04-25 19:01 | 41.50587 | -70.69725 | 2182 ft | 285 kts | 53° |
| 2026-04-25 19:01 | 41.51717 | -70.67655 | 2050 ft | 268 kts | 54° |
| 2026-04-25 19:02 | 41.53536 | -70.63613 | 2027 ft | 241 kts | 71° |
| 2026-04-25 19:02 | 41.54062 | -70.61573 | 1998 ft | 223 kts | 70° |
| 2026-04-25 19:02 | 41.54563 | -70.59707 | 2040 ft | 204 kts | 70° |
| 2026-04-25 19:03 | 41.55176 | -70.57463 | 2017 ft | 187 kts | 70° |
| 2026-04-25 19:03 | 41.55873 | -70.54834 | 2008 ft | 172 kts | 74° |
| 2026-04-25 19:03 | 41.55951 | -70.53307 | 2025 ft | 164 kts | 96° |
| 2026-04-25 19:04 | 41.55667 | -70.50318 | 1978 ft | 168 kts | 96° |
| 2026-04-25 19:04 | 41.55526 | -70.48719 | 1855 ft | 180 kts | 95° |
| 2026-04-25 19:05 | 41.54168 | -70.45888 | 1706 ft | 201 kts | 158° |
| 2026-04-25 19:05 | 41.51727 | -70.47101 | 1754 ft | 200 kts | 224° |
| 2026-04-25 19:05 | 41.50675 | -70.48301 | 1721 ft | 197 kts | 218° |
| 2026-04-25 19:06 | 41.49631 | -70.49458 | 1713 ft | 192 kts | 219° |
| 2026-04-25 19:06 | 41.47721 | -70.51632 | 1699 ft | 168 kts | 220° |
| 2026-04-25 19:06 | 41.46830 | -70.52647 | 1716 ft | 174 kts | 219° |
| 2026-04-25 19:07 | 41.44912 | -70.54827 | 1460 ft | 190 kts | 220° |
| 2026-04-25 19:07 | 41.43911 | -70.55969 | 1149 ft | 186 kts | 220° |
| 2026-04-25 19:08 | 41.42139 | -70.57986 | 733 ft | 148 kts | 219° |
| 2026-04-25 19:08 | 41.41381 | -70.58849 | 559 ft | 141 kts | 218° |
| 2026-04-25 19:09 | 41.39258 | -70.61261 | 63 ft | 78 kts | 221° |
| 2026-04-25 19:09 | 41.39137 | -70.61402 | 62 ft | 17 kts | 220° |
| 2026-04-25 19:09 | 41.39009 | -70.61334 | 63 ft | 11 kts | 95° |
| 2026-04-25 19:10 | 41.38998 | -70.61257 | 65 ft | 7 kts | 58° |
| 2026-04-25 19:10 | 41.39010 | -70.61242 | 66 ft | 0 kts | 41° |
| 2026-04-25 19:11 | 41.39018 | -70.61234 | 62 ft | 7 kts | 41° |
| 2026-04-25 19:11 | 41.39045 | -70.61173 | 66 ft | 8 kts | 82° |
| 2026-04-25 19:11 | 41.39067 | -70.61155 | 59 ft | 2 kts | 296° |
| 2026-04-25 19:11 | 41.39073 | -70.61170 | 61 ft | 0 kts | 296° |